Time;durP1;ratioP1;P1;durP2;ratioP2;P2;SDS_P1;SDS_P2;PMS_P1;PMS_P2;Temp;Humidity;BMP_temperature;BMP_pressure;BME280_temperature;BME280_humidity;BME280_pressure;Samples;Min_cycle;Max_cycle;Signal;HPM_P1;HPM_P2
2021/03/19 00:00:29;;;;;;;23.23;11.50;;;;;;;;;;5014681;28;20551;-60
2021/03/19 00:02:56;;;;;;;23.38;11.38;;;;;;;;;;5005560;28;20026;-60
2021/03/19 00:05:23;;;;;;;22.67;11.02;;;;;;;;;;5015804;28;20453;-60
2021/03/19 00:07:51;;;;;;;24.37;11.77;;;;;;;;;;5015622;28;20049;-63
2021/03/19 00:10:19;;;;;;;23.63;12.07;;;;;;;;;;4994222;28;20684;-61
2021/03/19 00:12:46;;;;;;;24.02;10.57;;;;;;;;;;5005797;28;20450;-57
2021/03/19 00:15:12;;;;;;;23.42;10.68;;;;;;;;;;4981664;28;20448;-61
2021/03/19 00:17:38;;;;;;;22.02;11.77;;;;;;;;;;4986888;28;20129;-62
2021/03/19 00:20:06;;;;;;;21.58;10.63;;;;;;;;;;4974693;28;20030;-60
2021/03/19 00:22:33;;;;;;;20.48;10.00;;;;;;;;;;4991710;28;20034;-62
2021/03/19 00:24:59;;;;;;;20.77;9.70;;;;;;;;;;4985280;28;20546;-60
2021/03/19 00:27:25;;;;;;;22.52;11.70;;;;;;;;;;4978343;28;20535;-61
2021/03/19 00:29:51;;;;;;;21.58;10.00;;;;;;;;;;4983655;28;20038;-57
2021/03/19 00:32:17;;;;;;;21.98;10.43;;;;;;;;;;4987089;28;20026;-59
2021/03/19 00:34:43;;;;;;;21.73;11.07;;;;;;;;;;5001505;28;20177;-62
2021/03/19 00:37:09;;;;;;;21.88;10.48;;;;;;;;;;4994765;28;20412;-62
2021/03/19 00:39:37;;;;;;;23.25;11.15;;;;;;;;;;5013896;28;20449;-59
2021/03/19 00:42:04;;;;;;;24.50;11.35;;;;;;;;;;5014110;28;20026;-61
2021/03/19 00:44:30;;;;;;;29.02;11.02;;;;;;;;;;4996620;28;20537;-62
2021/03/19 00:46:56;;;;;;;21.27;10.35;;;;;;;;;;5010924;28;20054;-61
2021/03/19 00:49:22;;;;;;;23.58;10.43;;;;;;;;;;4981399;28;20027;-61
2021/03/19 00:51:48;;;;;;;23.00;10.73;;;;;;;;;;4977342;28;20029;-62
2021/03/19 00:54:14;;;;;;;21.45;10.13;;;;;;;;;;4995776;28;20037;-61
2021/03/19 00:56:40;;;;;;;51.45;11.23;;;;;;;;;;5001441;28;20474;-61
2021/03/19 00:59:07;;;;;;;22.98;10.35;;;;;;;;;;4998970;28;20026;-63
2021/03/19 01:01:36;;;;;;;23.20;10.23;;;;;;;;;;4977088;28;20026;-61
2021/03/19 01:04:02;;;;;;;22.20;11.30;;;;;;;;;;5008367;28;20034;-62
2021/03/19 01:06:28;;;;;;;22.40;11.00;;;;;;;;;;4997152;28;20022;-60
2021/03/19 01:08:54;;;;;;;26.10;12.82;;;;;;;;;;5014775;28;20358;-60
2021/03/19 01:11:20;;;;;;;24.92;11.18;;;;;;;;;;4996413;28;20088;-57
2021/03/19 01:13:46;;;;;;;23.98;10.43;;;;;;;;;;5013899;28;20069;-59
2021/03/19 01:16:12;;;;;;;23.42;10.70;;;;;;;;;;4991119;28;20034;-62
2021/03/19 01:18:39;;;;;;;24.55;11.05;;;;;;;;;;5013808;28;20054;-58
2021/03/19 01:21:05;;;;;;;25.17;11.70;;;;;;;;;;5013769;28;20022;-60
2021/03/19 01:23:32;;;;;;;23.85;11.98;;;;;;;;;;4992231;28;20026;-58
2021/03/19 01:25:58;;;;;;;24.63;10.80;;;;;;;;;;4987447;28;20029;-60
2021/03/19 01:28:24;;;;;;;22.50;11.38;;;;;;;;;;4979704;28;20018;-60
2021/03/19 01:30:50;;;;;;;23.20;10.95;;;;;;;;;;4999235;28;20381;-59
2021/03/19 01:33:17;;;;;;;20.95;10.18;;;;;;;;;;4980804;28;20018;-56
2021/03/19 01:35:44;;;;;;;23.05;11.15;;;;;;;;;;5013679;28;20033;-58
2021/03/19 01:38:10;;;;;;;26.73;11.55;;;;;;;;;;4996162;28;20037;-59
2021/03/19 01:40:41;;;;;;;24.58;12.45;;;;;;;;;;4976693;28;20022;-61
2021/03/19 01:43:11;;;;;;;26.20;13.13;;;;;;;;;;5000697;28;20093;-62
2021/03/19 01:45:40;;;;;;;24.67;12.38;;;;;;;;;;4995238;28;20042;-62
2021/03/19 01:48:25;;;;;;;22.98;11.48;;;;;;;;;;5014830;28;20026;-57
2021/03/19 01:51:10;;;;;;;27.00;11.98;;;;;;;;;;4993677;28;20022;-61
2021/03/19 01:53:54;;;;;;;22.10;11.25;;;;;;;;;;4993595;28;20030;-59
2021/03/19 01:56:39;;;;;;;23.63;11.70;;;;;;;;;;5002682;28;20448;-60
2021/03/19 01:59:23;;;;;;;27.52;13.00;;;;;;;;;;4996945;28;20026;-61
2021/03/19 02:02:08;;;;;;;25.42;12.32;;;;;;;;;;4990113;28;20092;-60
2021/03/19 02:04:53;;;;;;;25.63;12.40;;;;;;;;;;4995438;28;20025;-61
2021/03/19 02:07:37;;;;;;;24.90;12.65;;;;;;;;;;5008953;28;20026;-60
2021/03/19 02:10:22;;;;;;;27.65;12.93;;;;;;;;;;4993177;28;20077;-56
2021/03/19 02:13:07;;;;;;;25.13;12.57;;;;;;;;;;4993290;28;20389;-59
2021/03/19 02:15:51;;;;;;;24.80;11.30;;;;;;;;;;4993222;28;20030;-61
2021/03/19 02:18:36;;;;;;;21.77;10.88;;;;;;;;;;5004830;28;20477;-62
2021/03/19 02:21:21;;;;;;;25.27;11.00;;;;;;;;;;4995114;28;20037;-62
2021/03/19 02:24:05;;;;;;;25.77;11.40;;;;;;;;;;4981036;28;20027;-59
2021/03/19 02:26:50;;;;;;;23.55;11.63;;;;;;;;;;4975653;28;20114;-61
2021/03/19 02:29:35;;;;;;;24.27;10.88;;;;;;;;;;5009428;28;20057;-60
2021/03/19 02:32:07;;;;;;;22.38;11.52;;;;;;;;;;4986352;28;20026;-62
2021/03/19 02:34:38;;;;;;;23.65;10.75;;;;;;;;;;5011477;28;20199;-61
2021/03/19 02:37:05;;;;;;;25.98;10.65;;;;;;;;;;5012391;28;20032;-61
2021/03/19 02:39:31;;;;;;;21.38;10.73;;;;;;;;;;4978036;28;20034;-59
2021/03/19 02:41:57;;;;;;;21.33;10.10;;;;;;;;;;4975451;28;20023;-58
2021/03/19 02:44:23;;;;;;;21.95;10.18;;;;;;;;;;4993971;28;20040;-60
2021/03/19 02:46:49;;;;;;;24.33;12.05;;;;;;;;;;4992669;28;20110;-62
2021/03/19 02:49:15;;;;;;;23.35;10.50;;;;;;;;;;4991713;28;20018;-61
2021/03/19 02:51:42;;;;;;;22.95;11.18;;;;;;;;;;4992668;28;20030;-60
2021/03/19 02:54:08;;;;;;;24.88;12.38;;;;;;;;;;4994746;28;20032;-60
2021/03/19 02:56:33;;;;;;;22.55;11.23;;;;;;;;;;5016275;28;20026;-59
2021/03/19 02:59:00;;;;;;;22.13;11.63;;;;;;;;;;5015124;28;20034;-59
2021/03/19 03:01:26;;;;;;;20.60;10.13;;;;;;;;;;5016536;28;20022;-60
2021/03/19 03:03:52;;;;;;;21.17;9.77;;;;;;;;;;5014901;28;20041;-58
2021/03/19 03:06:17;;;;;;;22.63;10.23;;;;;;;;;;5014831;28;20025;-60
2021/03/19 03:08:43;;;;;;;21.85;10.82;;;;;;;;;;5016183;28;20026;-59
2021/03/19 03:11:09;;;;;;;22.67;10.43;;;;;;;;;;5016274;28;20102;-58
2021/03/19 03:13:36;;;;;;;22.83;10.40;;;;;;;;;;5009649;28;20069;-57
2021/03/19 03:16:04;;;;;;;20.40;9.23;;;;;;;;;;4992125;28;20552;-61
2021/03/19 03:18:30;;;;;;;21.65;10.60;;;;;;;;;;4986340;28;20026;-59
2021/03/19 03:20:57;;;;;;;23.75;9.60;;;;;;;;;;4996255;28;20513;-60
2021/03/19 03:23:24;;;;;;;21.92;9.52;;;;;;;;;;4987492;28;20030;-57
2021/03/19 03:25:51;;;;;;;20.43;9.30;;;;;;;;;;5015201;28;20030;-60
2021/03/19 03:28:18;;;;;;;22.55;10.18;;;;;;;;;;4997810;28;20356;-60
2021/03/19 03:30:46;;;;;;;20.70;9.02;;;;;;;;;;4998510;28;20025;-60
2021/03/19 03:33:12;;;;;;;20.95;9.55;;;;;;;;;;5015765;28;20026;-59
2021/03/19 03:35:39;;;;;;;22.45;9.93;;;;;;;;;;4997947;28;20042;-61
2021/03/19 03:38:06;;;;;;;22.30;9.10;;;;;;;;;;4990372;28;20045;-63
2021/03/19 03:40:37;;;;;;;19.25;9.50;;;;;;;;;;5015594;28;20026;-60
2021/03/19 03:43:04;;;;;;;20.48;10.00;;;;;;;;;;4987194;28;20169;-59
2021/03/19 03:45:30;;;;;;;18.85;9.07;;;;;;;;;;4986567;28;20034;-60
2021/03/19 03:47:56;;;;;;;21.73;9.27;;;;;;;;;;4999144;28;20018;-59
2021/03/19 03:50:23;;;;;;;18.77;9.00;;;;;;;;;;4998353;28;20026;-61
2021/03/19 03:52:49;;;;;;;23.23;10.48;;;;;;;;;;4995729;28;20026;-60
2021/03/19 03:55:15;;;;;;;22.85;9.38;;;;;;;;;;5013692;28;20057;-58
2021/03/19 03:57:41;;;;;;;19.75;8.90;;;;;;;;;;5015055;28;20477;-61
2021/03/19 04:00:12;;;;;;;19.58;8.65;;;;;;;;;;4997543;28;20026;-58
2021/03/19 04:02:38;;;;;;;19.92;9.00;;;;;;;;;;4995403;28;20026;-60
2021/03/19 04:05:06;;;;;;;21.27;9.10;;;;;;;;;;4994401;28;20497;-60
2021/03/19 04:07:32;;;;;;;20.45;9.20;;;;;;;;;;5001112;28;20030;-59
2021/03/19 04:09:59;;;;;;;21.25;8.95;;;;;;;;;;5015242;28;20147;-60
2021/03/19 04:12:25;;;;;;;20.98;9.15;;;;;;;;;;5015012;28;20029;-60
2021/03/19 04:14:51;;;;;;;21.63;9.43;;;;;;;;;;5014482;28;20033;-60
2021/03/19 04:17:25;;;;;;;23.35;9.88;;;;;;;;;;5016762;28;20034;-59
2021/03/19 04:19:52;;;;;;;19.98;9.65;;;;;;;;;;5001957;28;20022;-58
2021/03/19 04:22:18;;;;;;;22.98;9.93;;;;;;;;;;5014899;28;20180;-59
2021/03/19 04:24:44;;;;;;;21.15;10.27;;;;;;;;;;5010489;28;20050;-63
2021/03/19 04:27:13;;;;;;;22.13;9.13;;;;;;;;;;5014592;28;20507;-59
2021/03/19 04:29:40;;;;;;;23.33;10.07;;;;;;;;;;4991675;28;20022;-60
2021/03/19 04:32:06;;;;;;;23.83;10.95;;;;;;;;;;4995192;28;20022;-60
2021/03/19 04:34:32;;;;;;;19.65;9.10;;;;;;;;;;4995054;28;20035;-61
2021/03/19 04:36:59;;;;;;;23.02;9.23;;;;;;;;;;4994965;28;20042;-61
2021/03/19 04:39:28;;;;;;;19.75;9.02;;;;;;;;;;5015001;28;20366;-60
2021/03/19 04:41:55;;;;;;;20.27;9.52;;;;;;;;;;5006978;28;20062;-62
2021/03/19 04:44:22;;;;;;;18.67;8.27;;;;;;;;;;5002219;28;20022;-61
2021/03/19 04:46:48;;;;;;;20.35;9.50;;;;;;;;;;5010638;28;20026;-62
2021/03/19 04:49:14;;;;;;;19.38;9.05;;;;;;;;;;5013126;28;20026;-60
2021/03/19 04:51:40;;;;;;;20.13;10.25;;;;;;;;;;5013590;28;20049;-62
2021/03/19 04:54:07;;;;;;;19.88;9.85;;;;;;;;;;4996966;28;20485;-61
2021/03/19 04:56:34;;;;;;;19.90;8.70;;;;;;;;;;5002267;28;20030;-56
2021/03/19 04:59:00;;;;;;;21.38;10.10;;;;;;;;;;4996081;28;20085;-60
2021/03/19 05:01:26;;;;;;;19.33;9.07;;;;;;;;;;4988042;28;20489;-60
2021/03/19 05:03:52;;;;;;;19.45;9.57;;;;;;;;;;5013907;28;20078;-59
2021/03/19 05:06:19;;;;;;;18.80;9.15;;;;;;;;;;5013777;28;20029;-60
2021/03/19 05:08:45;;;;;;;21.10;9.80;;;;;;;;;;4991157;28;20030;-59
2021/03/19 05:11:13;;;;;;;18.92;9.48;;;;;;;;;;4976686;28;20019;-59
2021/03/19 05:13:39;;;;;;;20.23;9.73;;;;;;;;;;4976951;28;20028;-61
2021/03/19 05:16:06;;;;;;;21.70;9.82;;;;;;;;;;5007954;28;20416;-60
2021/03/19 05:18:32;;;;;;;20.42;8.50;;;;;;;;;;4982578;28;20029;-59
2021/03/19 05:21:00;;;;;;;23.67;10.88;;;;;;;;;;4977658;28;20031;-60
2021/03/19 05:23:31;;;;;;;21.40;9.20;;;;;;;;;;5017378;28;20030;-62
2021/03/19 05:25:59;;;;;;;19.08;9.60;;;;;;;;;;4999554;28;20140;-59
2021/03/19 05:28:25;;;;;;;18.98;9.18;;;;;;;;;;4986989;28;20022;-63
2021/03/19 05:30:54;;;;;;;19.70;9.95;;;;;;;;;;4994971;28;20033;-61
2021/03/19 05:33:27;;;;;;;20.13;10.07;;;;;;;;;;4976543;28;20026;-60
2021/03/19 05:35:53;;;;;;;22.45;10.35;;;;;;;;;;4993783;28;20030;-61
2021/03/19 05:38:20;;;;;;;20.20;9.75;;;;;;;;;;4994357;28;20081;-61
2021/03/19 05:40:50;;;;;;;20.33;10.13;;;;;;;;;;4993965;28;20433;-60
2021/03/19 05:43:21;;;;;;;20.85;9.77;;;;;;;;;;4993701;28;20033;-58
2021/03/19 05:45:55;;;;;;;18.88;9.70;;;;;;;;;;4993344;28;20037;-59
2021/03/19 05:48:22;;;;;;;19.55;9.32;;;;;;;;;;4993708;28;20048;-62
2021/03/19 05:50:48;;;;;;;23.58;11.60;;;;;;;;;;4976132;28;20338;-60
2021/03/19 05:53:15;;;;;;;19.77;9.45;;;;;;;;;;4975933;28;20034;-60
2021/03/19 05:55:42;;;;;;;19.92;9.40;;;;;;;;;;4975894;28;20520;-59
2021/03/19 05:58:24;;;;;;;19.25;9.10;;;;;;;;;;4993170;28;20437;-58
2021/03/19 06:00:54;;;;;;;19.63;9.55;;;;;;;;;;4975701;28;20034;-59
2021/03/19 06:03:20;;;;;;;20.35;9.15;;;;;;;;;;4975599;28;20034;-58
2021/03/19 06:06:04;;;;;;;18.00;9.32;;;;;;;;;;4993328;28;20105;-58
2021/03/19 06:08:41;;;;;;;16.70;8.40;;;;;;;;;;4994216;28;20054;-61
2021/03/19 06:11:10;;;;;;;21.48;9.35;;;;;;;;;;4992791;28;20046;-59
2021/03/19 06:14:00;;;;;;;20.20;9.57;;;;;;;;;;4993038;28;20019;-59
2021/03/19 06:16:31;;;;;;;19.30;8.95;;;;;;;;;;4987369;28;20041;-61
2021/03/19 06:18:59;;;;;;;20.50;9.18;;;;;;;;;;4992822;28;20478;-60
2021/03/19 06:21:32;;;;;;;18.98;8.65;;;;;;;;;;4992771;28;20034;-57
2021/03/19 06:24:02;;;;;;;18.00;8.48;;;;;;;;;;4993138;28;20061;-60
2021/03/19 06:26:37;;;;;;;18.05;8.57;;;;;;;;;;4992701;28;20033;-59
2021/03/19 06:29:08;;;;;;;19.90;8.15;;;;;;;;;;4991625;28;20458;-60
2021/03/19 06:31:35;;;;;;;17.33;7.65;;;;;;;;;;4992562;28;20390;-60
2021/03/19 06:34:07;;;;;;;18.40;7.53;;;;;;;;;;4992889;28;20474;-58
2021/03/19 06:36:34;;;;;;;18.98;8.02;;;;;;;;;;4992944;28;20066;-59
2021/03/19 06:39:14;;;;;;;18.70;8.27;;;;;;;;;;4992522;28;20034;-62
2021/03/19 06:41:41;;;;;;;17.67;8.77;;;;;;;;;;4975301;28;20023;-59
2021/03/19 06:44:34;;;;;;;20.30;9.77;;;;;;;;;;4992369;28;20037;-56
2021/03/19 06:47:02;;;;;;;16.85;8.20;;;;;;;;;;4973105;28;20057;-60
2021/03/19 06:49:29;;;;;;;23.92;11.90;;;;;;;;;;4974921;28;20023;-61
2021/03/19 06:52:15;;;;;;;18.88;8.00;;;;;;;;;;4992436;28;20478;-62
2021/03/19 06:54:50;;;;;;;20.73;9.68;;;;;;;;;;4974991;28;20038;-62
2021/03/19 06:57:19;;;;;;;18.65;8.13;;;;;;;;;;4974757;28;20027;-63
2021/03/19 06:59:45;;;;;;;17.30;8.30;;;;;;;;;;4992736;28;20037;-60
2021/03/19 07:02:28;;;;;;;21.25;10.85;;;;;;;;;;4975070;28;20048;-62
2021/03/19 07:05:00;;;;;;;22.83;12.13;;;;;;;;;;4992605;28;20035;-60
2021/03/19 07:07:36;;;;;;;19.42;8.98;;;;;;;;;;4974564;28;20018;-59
2021/03/19 07:10:02;;;;;;;19.02;8.98;;;;;;;;;;4992364;28;20026;-61
2021/03/19 07:12:43;;;;;;;20.40;9.55;;;;;;;;;;4992472;28;20054;-61
2021/03/19 07:15:33;;;;;;;19.05;7.82;;;;;;;;;;4992361;28;20106;-59
2021/03/19 07:18:19;;;;;;;17.63;8.02;;;;;;;;;;4974727;28;20036;-61
2021/03/19 07:20:45;;;;;;;16.15;7.13;;;;;;;;;;4991349;28;20026;-59
2021/03/19 07:23:16;;;;;;;19.13;8.18;;;;;;;;;;5012049;28;20026;-61
2021/03/19 07:26:01;;;;;;;18.27;8.65;;;;;;;;;;4993940;28;20481;-60
2021/03/19 07:28:33;;;;;;;16.05;7.50;;;;;;;;;;5010223;28;20057;-62
2021/03/19 07:31:19;;;;;;;18.10;8.23;;;;;;;;;;5012193;28;20025;-59
2021/03/19 07:34:20;;;;;;;23.35;10.70;;;;;;;;;;5011103;28;20022;-57
2021/03/19 07:36:49;;;;;;;16.25;8.10;;;;;;;;;;4970883;28;20475;-58
2021/03/19 07:39:42;;;;;;;17.48;8.05;;;;;;;;;;4991125;28;20116;-63
2021/03/19 07:42:26;;;;;;;26.52;13.85;;;;;;;;;;4998299;28;20052;-62
2021/03/19 07:44:59;;;;;;;26.40;13.85;;;;;;;;;;4998510;28;20026;-62
2021/03/19 07:47:25;;;;;;;21.58;9.52;;;;;;;;;;4998416;28;20671;-62
2021/03/19 07:50:03;;;;;;;16.35;7.70;;;;;;;;;;4997861;28;20029;-61
2021/03/19 07:52:51;;;;;;;17.88;9.05;;;;;;;;;;5016345;28;20018;-58
2021/03/19 07:55:30;;;;;;;21.25;8.32;;;;;;;;;;5014909;28;20481;-60
2021/03/19 07:58:08;;;;;;;20.83;10.38;;;;;;;;;;5013200;28;20774;-59
2021/03/19 08:00:37;;;;;;;21.60;10.57;;;;;;;;;;5015604;28;20034;-63
2021/03/19 08:03:11;;;;;;;16.45;7.63;;;;;;;;;;5015351;28;20022;-55
2021/03/19 08:05:45;;;;;;;18.00;9.02;;;;;;;;;;5015238;28;20084;-61
2021/03/19 08:08:16;;;;;;;17.58;8.30;;;;;;;;;;5014747;28;20080;-62
2021/03/19 08:10:45;;;;;;;16.85;8.40;;;;;;;;;;5013373;28;20022;-58
2021/03/19 08:13:30;;;;;;;16.35;7.97;;;;;;;;;;5013011;28;20400;-60
2021/03/19 08:16:01;;;;;;;19.52;8.52;;;;;;;;;;5015070;28;20033;-62
2021/03/19 08:18:41;;;;;;;16.85;7.82;;;;;;;;;;5013224;28;20026;-59
2021/03/19 08:21:23;;;;;;;16.27;7.43;;;;;;;;;;5014736;28;20108;-59
2021/03/19 08:23:52;;;;;;;23.45;9.00;;;;;;;;;;5002979;28;20080;-61
2021/03/19 08:26:25;;;;;;;20.60;11.55;;;;;;;;;;5013461;28;20026;-61
2021/03/19 08:28:54;;;;;;;16.15;8.32;;;;;;;;;;5012833;28;20026;-61
2021/03/19 08:31:42;;;;;;;15.35;8.32;;;;;;;;;;5013095;28;20117;-61
2021/03/19 08:34:11;;;;;;;16.08;7.82;;;;;;;;;;5014443;28;20061;-60
2021/03/19 08:36:37;;;;;;;18.40;8.60;;;;;;;;;;5014158;28;20040;-61
2021/03/19 08:39:30;;;;;;;17.02;8.60;;;;;;;;;;5012852;28;20037;-60
2021/03/19 08:42:05;;;;;;;16.55;7.88;;;;;;;;;;4976139;28;20041;-63
2021/03/19 08:44:34;;;;;;;18.10;8.80;;;;;;;;;;5013561;28;20037;-61
2021/03/19 08:47:25;;;;;;;17.80;7.78;;;;;;;;;;5012011;28;20029;-62
2021/03/19 08:49:59;;;;;;;15.80;8.05;;;;;;;;;;4984769;28;20505;-62
2021/03/19 08:52:28;;;;;;;17.50;7.80;;;;;;;;;;5011478;28;20033;-61
2021/03/19 08:55:13;;;;;;;17.40;8.93;;;;;;;;;;5013418;28;20501;-62
2021/03/19 08:57:40;;;;;;;15.60;7.80;;;;;;;;;;5010924;28;20060;-62
2021/03/19 09:00:09;;;;;;;18.08;8.25;;;;;;;;;;5013791;28;20081;-60
2021/03/19 09:03:06;;;;;;;16.17;8.43;;;;;;;;;;5013025;28;20026;-61
2021/03/19 09:05:32;;;;;;;17.38;8.13;;;;;;;;;;5005005;28;20103;-59
2021/03/19 09:08:12;;;;;;;15.00;8.00;;;;;;;;;;5011700;28;20041;-63
2021/03/19 09:10:38;;;;;;;15.07;8.13;;;;;;;;;;5011685;28;20036;-63
2021/03/19 09:13:08;;;;;;;17.40;8.80;;;;;;;;;;5012450;28;20112;-60
2021/03/19 09:15:36;;;;;;;15.63;8.02;;;;;;;;;;5013239;28;20018;-63
2021/03/19 09:18:05;;;;;;;17.07;8.20;;;;;;;;;;5012691;28;20109;-64
2021/03/19 09:20:31;;;;;;;16.58;8.80;;;;;;;;;;5012861;28;20320;-60
2021/03/19 09:23:03;;;;;;;16.08;8.73;;;;;;;;;;5012753;28;20021;-61
2021/03/19 09:25:48;;;;;;;16.80;8.65;;;;;;;;;;4995434;28;20152;-55
2021/03/19 09:28:49;;;;;;;15.55;8.15;;;;;;;;;;5012122;28;20018;-56
2021/03/19 09:31:27;;;;;;;15.38;8.90;;;;;;;;;;4932933;29;20114;-55
2021/03/19 09:33:56;;;;;;;15.38;8.40;;;;;;;;;;5002966;28;20096;-56
2021/03/19 09:36:41;;;;;;;17.30;8.38;;;;;;;;;;4994601;28;20485;-57
2021/03/19 09:39:07;;;;;;;15.35;9.05;;;;;;;;;;5012113;28;20038;-54
2021/03/19 09:41:51;;;;;;;16.15;9.02;;;;;;;;;;4994157;28;20152;-56
2021/03/19 09:44:25;;;;;;;18.65;8.63;;;;;;;;;;5012287;28;20535;-54
2021/03/19 09:46:58;;;;;;;15.20;8.90;;;;;;;;;;4994430;28;20025;-57
2021/03/19 09:49:26;;;;;;;16.52;9.00;;;;;;;;;;4994975;28;20033;-57
2021/03/19 09:51:52;;;;;;;16.50;9.10;;;;;;;;;;5012219;28;20067;-56
2021/03/19 09:54:20;;;;;;;14.70;8.80;;;;;;;;;;5012101;28;20272;-55
2021/03/19 09:56:47;;;;;;;16.35;9.48;;;;;;;;;;5011624;28;20481;-57
2021/03/19 09:59:25;;;;;;;20.92;9.32;;;;;;;;;;5012324;28;20037;-56
2021/03/19 10:01:51;;;;;;;19.10;9.50;;;;;;;;;;4994709;28;20022;-60
2021/03/19 10:04:33;;;;;;;16.67;9.27;;;;;;;;;;5012029;28;20030;-57
2021/03/19 10:07:00;;;;;;;14.73;9.35;;;;;;;;;;4994331;28;20026;-59
2021/03/19 10:09:27;;;;;;;15.70;9.52;;;;;;;;;;5011968;28;20072;-58
2021/03/19 10:12:01;;;;;;;14.85;9.50;;;;;;;;;;5011663;28;20358;-57
2021/03/19 10:14:32;;;;;;;18.52;9.55;;;;;;;;;;4994435;28;20056;-56
2021/03/19 10:17:24;;;;;;;14.10;8.80;;;;;;;;;;5012174;28;20033;-53
2021/03/19 10:19:54;;;;;;;15.55;9.52;;;;;;;;;;5009827;28;20052;-56
2021/03/19 10:22:46;;;;;;;15.43;9.40;;;;;;;;;;5013602;28;20025;-56
2021/03/19 10:25:27;;;;;;;15.40;9.27;;;;;;;;;;5009345;28;20042;-55
2021/03/19 10:27:55;;;;;;;17.48;9.60;;;;;;;;;;5009056;28;20017;-57
2021/03/19 10:30:27;;;;;;;18.00;9.68;;;;;;;;;;4987006;28;20029;-58
2021/03/19 10:32:54;;;;;;;15.77;9.40;;;;;;;;;;5009605;28;20029;-60
2021/03/19 10:35:27;;;;;;;16.65;10.00;;;;;;;;;;5011630;28;20022;-56
2021/03/19 10:37:57;;;;;;;15.82;9.32;;;;;;;;;;4999346;28;20034;-57
2021/03/19 10:40:29;;;;;;;15.00;9.18;;;;;;;;;;5011022;28;20430;-56
2021/03/19 10:43:14;;;;;;;15.88;9.68;;;;;;;;;;5011014;28;20022;-63
2021/03/19 10:45:43;;;;;;;14.48;9.15;;;;;;;;;;5011629;28;20561;-61
2021/03/19 10:48:12;;;;;;;18.63;11.18;;;;;;;;;;5012692;28;20029;-61
2021/03/19 10:50:45;;;;;;;16.63;9.10;;;;;;;;;;5012080;28;20026;-60
2021/03/19 10:53:16;;;;;;;14.30;9.40;;;;;;;;;;5012438;28;20552;-58
2021/03/19 10:55:43;;;;;;;15.65;9.80;;;;;;;;;;5011666;28;20057;-59
2021/03/19 10:58:33;;;;;;;17.42;10.45;;;;;;;;;;5011283;28;20402;-59
2021/03/19 11:01:00;;;;;;;15.38;9.20;;;;;;;;;;5000950;28;20029;-60
2021/03/19 11:03:34;;;;;;;23.70;10.32;;;;;;;;;;5010913;28;20025;-61
2021/03/19 11:06:04;;;;;;;15.02;9.45;;;;;;;;;;4983443;28;20022;-61
2021/03/19 11:08:31;;;;;;;16.45;9.57;;;;;;;;;;5009782;28;20501;-59
2021/03/19 11:10:57;;;;;;;16.52;9.75;;;;;;;;;;4993068;28;20093;-61
2021/03/19 11:13:26;;;;;;;15.30;9.50;;;;;;;;;;5011718;28;20481;-55
2021/03/19 11:15:54;;;;;;;14.88;10.07;;;;;;;;;;5014622;28;20030;-62
2021/03/19 11:18:20;;;;;;;16.35;9.55;;;;;;;;;;4998196;28;20373;-61
2021/03/19 11:20:49;;;;;;;17.10;9.40;;;;;;;;;;4998361;28;20029;-60
2021/03/19 11:23:36;;;;;;;15.68;9.63;;;;;;;;;;4998821;28;20504;-57
2021/03/19 11:26:24;;;;;;;14.30;9.60;;;;;;;;;;4993520;28;20029;-54
2021/03/19 11:29:04;;;;;;;17.33;10.50;;;;;;;;;;5005598;28;20412;-60
2021/03/19 11:31:31;;;;;;;16.40;9.93;;;;;;;;;;5016705;28;20022;-58
2021/03/19 11:33:59;;;;;;;15.55;10.10;;;;;;;;;;5016264;28;20033;-60
2021/03/19 11:36:26;;;;;;;15.82;10.40;;;;;;;;;;5016216;28;20121;-56
2021/03/19 11:38:53;;;;;;;18.15;11.52;;;;;;;;;;5038985;23;20438;-62
2021/03/19 11:41:28;;;;;;;17.10;10.73;;;;;;;;;;5033589;28;20451;-61
2021/03/19 11:43:55;;;;;;;16.25;11.02;;;;;;;;;;5034145;28;20146;-62
2021/03/19 11:46:21;;;;;;;15.68;11.05;;;;;;;;;;5033174;28;20615;-62
2021/03/19 11:48:48;;;;;;;15.23;11.25;;;;;;;;;;5033964;28;20496;-60
2021/03/19 11:51:16;;;;;;;15.38;11.40;;;;;;;;;;5033657;28;20071;-64
2021/03/19 11:53:43;;;;;;;16.35;11.10;;;;;;;;;;5033392;28;20021;-63
2021/03/19 11:56:09;;;;;;;15.95;11.57;;;;;;;;;;5032522;28;20073;-62
2021/03/19 11:58:35;;;;;;;15.95;11.50;;;;;;;;;;5032824;28;20029;-61
2021/03/19 12:01:02;;;;;;;17.70;11.73;;;;;;;;;;5033101;28;20025;-63
2021/03/19 12:03:38;;;;;;;15.27;11.32;;;2.40;99.90;;;;;;5031996;28;20040;-62
2021/03/19 12:06:05;;;;;;;16.98;11.80;;;18.00;51.70;;;;;;5033006;28;20506;-62
2021/03/19 12:08:32;;;;;;;15.77;11.85;;;18.90;50.30;;;;;;5025623;28;20066;-63
2021/03/19 12:10:58;;;;;;;17.83;12.00;;;;;;;;;;5023648;28;20033;-63
2021/03/19 12:13:25;;;;;;;16.30;11.60;;;;;;;;;;5006494;28;20087;-62
2021/03/19 12:15:51;;;;;;;15.10;11.45;;;;;;;;;;5003236;28;20458;-64
2021/03/19 12:18:19;;;;;;;20.67;12.20;;;;;;;;;;5012916;28;20475;-64
2021/03/19 12:20:45;;;;;;;15.63;11.10;;;18.30;50.10;;;;;;5013717;28;20528;-62
2021/03/19 12:23:11;;;;;;;15.32;10.85;;;;;;;;;;5013337;28;20022;-63
2021/03/19 12:25:38;;;;;;;17.55;11.48;;;;;;;;;;5011460;28;20116;-63
2021/03/19 12:28:05;;;;;;;16.50;10.98;;;;;;;;;;5011928;28;20029;-63
2021/03/19 12:30:32;;;;;;;18.05;12.15;;;;;;;;;;5013054;28;20029;-64
2021/03/19 12:32:58;;;;;;;15.32;11.40;;;;;;;;;;5012661;28;20547;-63
2021/03/19 12:35:26;;;;;;;15.60;11.57;;;;;;;;;;5012700;28;20036;-62
2021/03/19 12:37:53;;;;;;;18.42;11.35;;;;;;;;;;5010630;28;20026;-63
2021/03/19 12:40:20;;;;;;;16.85;11.60;;;;;;;;;;5011174;28;20155;-61
2021/03/19 12:42:46;;;;;;;16.30;12.13;;;;;;;;;;5012441;28;20022;-60
2021/03/19 12:45:13;;;;;;;17.15;11.68;;;;;;;;;;5013145;28;20453;-61
2021/03/19 12:47:39;;;;;;;15.15;11.38;;;;;;;;;;5012209;28;20029;-62
2021/03/19 12:50:05;;;;;;;15.25;11.25;;;;;;;;;;5012709;28;20114;-62
2021/03/19 12:52:32;;;;;;;15.23;11.30;;;;;;;;;;5012790;28;20477;-60
2021/03/19 12:54:58;;;;;;;16.75;11.40;;;;;;;;;;5012676;28;20496;-59
2021/03/19 12:57:24;;;;;;;16.75;11.70;;;;;;;;;;5011582;28;20077;-61
2021/03/19 12:59:50;;;;;;;15.20;11.35;;;;;;;;;;5012145;28;20033;-62
2021/03/19 13:02:16;;;;;;;16.40;12.00;;;;;;;;;;5012148;28;20119;-63
2021/03/19 13:04:42;;;;;;;20.17;11.45;;;;;;;;;;5011879;28;20118;-61
2021/03/19 13:07:08;;;;;;;15.65;11.02;;;;;;;;;;5009818;28;20117;-63
2021/03/19 13:09:38;;;;;;;15.52;11.43;;;;;;;;;;5011884;28;20022;-60
2021/03/19 13:12:05;;;;;;;15.30;10.95;;;;;;;;;;5011755;28;20022;-62
2021/03/19 13:14:31;;;;;;;14.63;10.70;;;;;;;;;;5011832;28;20033;-61
2021/03/19 13:16:58;;;;;;;15.18;10.93;;;;;;;;;;5011038;28;20092;-62
2021/03/19 13:19:25;;;;;;;15.13;11.15;;;;;;;;;;5011793;28;20056;-62
2021/03/19 13:21:51;;;;;;;16.23;11.10;;;;;;;;;;5011740;28;20040;-61
2021/03/19 13:24:17;;;;;;;15.30;11.10;;;;;;;;;;5011526;28;20477;-62
2021/03/19 13:26:43;;;;;;;17.95;11.05;;;;;;;;;;5011384;28;20030;-60
2021/03/19 13:29:10;;;;;;;15.43;11.00;;;;;;;;;;5011822;28;20022;-62
2021/03/19 13:31:36;;;;;;;16.25;11.30;;;;;;;;;;5011660;28;20018;-60
2021/03/19 13:34:03;;;;;;;14.95;11.05;;;;;;;;;;5011774;28;20029;-61
2021/03/19 13:36:29;;;;;;;15.82;11.45;;;;;;;;;;5009235;28;20486;-62
2021/03/19 13:38:55;;;;;;;20.55;11.40;;;;;;;;;;5010896;28;20034;-63
2021/03/19 13:41:21;;;;;;;16.25;10.88;;;;;;;;;;5010195;28;20076;-61
2021/03/19 13:43:47;;;;;;;14.77;11.18;;;;;;;;;;5011076;28;20034;-64
2021/03/19 13:46:15;;;;;;;14.90;10.77;;;;;;;;;;5009304;28;20120;-61
2021/03/19 13:48:41;;;;;;;15.00;10.88;;;;;;;;;;5011728;28;20465;-64
2021/03/19 13:51:08;;;;;;;15.55;11.68;;;;;;;;;;5011498;28;20362;-62
2021/03/19 13:53:35;;;;;;;16.58;10.60;;;;;;;;;;5011387;28;20080;-55
2021/03/19 13:56:01;;;;;;;15.35;10.98;;;;;;;;;;5009626;28;20485;-63
2021/03/19 13:58:29;;;;;;;16.08;10.82;;;;;;;;;;5010416;28;20053;-61
2021/03/19 14:00:56;;;;;;;14.77;10.30;;;;;;;;;;5011028;28;20525;-62
2021/03/19 14:03:22;;;;;;;14.48;10.18;;;;;;;;;;5011408;28;20272;-60
2021/03/19 14:05:48;;;;;;;15.80;10.90;;;;;;;;;;5009904;28;20037;-59
2021/03/19 14:08:17;;;;;;;15.43;11.35;;;;;;;;;;5010849;28;20458;-62
2021/03/19 14:10:43;;;;;;;15.82;11.27;;;;;;;;;;5025552;28;20056;-62
2021/03/19 14:13:09;;;;;;;15.55;10.80;;;;;;;;;;5029686;28;20053;-62
2021/03/19 14:15:35;;;;;;;17.80;11.05;;;;;;;;;;5031008;28;20047;-63
2021/03/19 14:18:01;;;;;;;16.33;10.80;;;;;;;;;;5030506;28;20517;-64
2021/03/19 14:20:31;;;;;;;16.17;10.90;;;;;;;;;;5031003;28;20031;-60
2021/03/19 14:22:58;;;;;;;16.52;11.45;;;;;;;;;;5029141;28;20074;-63
2021/03/19 14:25:24;;;;;;;15.40;10.38;;;;;;;;;;5008980;28;20080;-64
2021/03/19 14:27:50;;;;;;;17.23;10.63;;;;;;;;;;5009364;28;20022;-61
2021/03/19 14:30:17;;;;;;;21.75;15.10;;;;;;;;;;5010626;28;20097;-57
2021/03/19 14:32:43;;;;;;;18.65;13.95;;;;;;;;;;5009398;28;20058;-64
2021/03/19 14:35:11;;;;;;;15.50;10.80;;;;;;;;;;5010631;28;20030;-61
2021/03/19 14:37:37;;;;;;;15.17;10.90;;;;;;;;;;5010442;28;20040;-61
2021/03/19 14:40:04;;;;;;;16.02;11.13;;;;;;;;;;5010060;28;20065;-63